createdAt,value
2018-07-30T00:00:52.976Z,55987.40
2018-07-30T00:03:22.278Z,56008.99
2018-07-30T00:05:51.552Z,55985.34
2018-07-30T00:08:20.614Z,55989.45
2018-07-30T00:10:50.275Z,55988.43
2018-07-30T00:13:19.673Z,55971.97
2018-07-30T00:15:49.668Z,55986.37
2018-07-30T00:18:18.941Z,55963.75
2018-07-30T00:20:48.505Z,55976.09
2018-07-30T00:23:17.783Z,55975.06
2018-07-30T00:25:47.079Z,55987.40
2018-07-30T00:28:16.699Z,55968.89
2018-07-30T00:30:46.024Z,55976.09
2018-07-30T00:33:15.324Z,56001.79
2018-07-30T00:35:44.602Z,55996.65
2018-07-30T00:38:13.814Z,55995.62
2018-07-30T00:40:43.087Z,55999.73
2018-07-30T00:43:12.337Z,55968.89
2018-07-30T00:45:41.937Z,55993.57
2018-07-30T00:48:11.700Z,56016.19
2018-07-30T00:50:41.182Z,56007.96
2018-07-30T00:53:10.698Z,55965.80
2018-07-30T00:55:40.241Z,55982.25
2018-07-30T00:58:09.540Z,55962.72
2018-07-30T01:00:39.307Z,55983.28
2018-07-30T01:03:08.565Z,55999.73
2018-07-30T01:05:37.872Z,55981.23
2018-07-30T01:08:07.787Z,55998.71
2018-07-30T01:10:37.351Z,55968.89
2018-07-30T01:13:06.699Z,55996.65
2018-07-30T01:15:36.328Z,55962.72
2018-07-30T01:18:05.658Z,55987.40
2018-07-30T01:20:35.325Z,55989.45
2018-07-30T01:23:04.784Z,55974.03
2018-07-30T01:25:34.108Z,55988.43
2018-07-30T01:28:03.383Z,55985.34
2018-07-30T01:30:32.614Z,55975.06
2018-07-30T01:33:02.175Z,55981.23
2018-07-30T01:35:31.613Z,56003.85
2018-07-30T01:38:00.863Z,55992.54
2018-07-30T01:40:30.258Z,55995.62
2018-07-30T01:42:59.807Z,55983.28
2018-07-30T01:45:29.104Z,55960.66
2018-07-30T01:47:58.364Z,55983.28
2018-07-30T01:50:27.684Z,55973.00
2018-07-30T01:52:56.942Z,55973.00
2018-07-30T01:55:26.677Z,55979.17
2018-07-30T01:57:55.894Z,56013.10
2018-07-30T02:00:25.463Z,56001.79
2018-07-30T02:02:54.760Z,55977.11
2018-07-30T02:05:24.334Z,55985.34
2018-07-30T02:07:53.980Z,56024.41
2018-07-30T02:10:23.330Z,55993.57
2018-07-30T02:12:52.698Z,55987.40
2018-07-30T02:15:22.401Z,55987.40
2018-07-30T02:17:51.949Z,56001.79
2018-07-30T02:20:21.271Z,55995.62
2018-07-30T02:22:50.870Z,55985.34
2018-07-30T02:25:21.005Z,55983.28
2018-07-30T02:27:50.555Z,55974.03
2018-07-30T02:30:19.837Z,55985.34
2018-07-30T02:32:49.143Z,55985.34
2018-07-30T02:35:18.481Z,55998.71
2018-07-30T02:37:47.731Z,55979.17
2018-07-30T02:40:17.475Z,55989.45
2018-07-30T02:42:46.744Z,56014.13
2018-07-30T02:45:16.018Z,55993.57
2018-07-30T02:47:46.365Z,56029.55
2018-07-30T02:50:15.598Z,56004.87
2018-07-30T02:52:45.208Z,56012.07
2018-07-30T02:55:14.834Z,56018.24
2018-07-30T02:57:44.282Z,56028.52
2018-07-30T03:00:13.484Z,56010.02
2018-07-30T03:02:43.113Z,56015.16
2018-07-30T03:05:12.926Z,56017.21
2018-07-30T03:07:42.509Z,56017.21
2018-07-30T03:10:12.077Z,56003.85
2018-07-30T03:12:41.826Z,56005.90
2018-07-30T03:15:11.062Z,56003.85
2018-07-30T03:17:40.356Z,56007.96
2018-07-30T03:20:09.656Z,55982.25
2018-07-30T03:22:39.252Z,56014.13
2018-07-30T03:25:08.999Z,56016.19
2018-07-30T03:27:38.274Z,56011.05
2018-07-30T03:30:09.830Z,56014.13
2018-07-30T03:32:39.452Z,56017.21
2018-07-30T03:35:09.729Z,56015.16
2018-07-30T03:37:39.483Z,56051.14
2018-07-30T03:40:08.869Z,56020.30
2018-07-30T03:42:38.443Z,56012.07
2018-07-30T03:45:09.164Z,56007.96
2018-07-30T03:47:38.427Z,56022.36
2018-07-30T03:50:08.028Z,56050.12
2018-07-30T03:52:37.315Z,56042.92
2018-07-30T03:55:07.804Z,56030.58
2018-07-30T03:57:37.801Z,56022.36
2018-07-30T04:00:09.831Z,56011.05
2018-07-30T04:02:39.174Z,56014.13
2018-07-30T04:05:08.763Z,56023.38
2018-07-30T04:07:38.980Z,56032.64
2018-07-30T04:10:09.911Z,56023.38
2018-07-30T04:12:40.002Z,56010.02
2018-07-30T04:15:10.025Z,56024.41
2018-07-30T04:17:39.309Z,56041.89
2018-07-30T04:20:08.968Z,56008.99
2018-07-30T04:22:38.247Z,56031.61
2018-07-30T04:25:08.085Z,56016.19
2018-07-30T04:27:37.424Z,56015.16
2018-07-30T04:30:06.715Z,56019.27
2018-07-30T04:32:36.388Z,55996.65
2018-07-30T04:35:05.726Z,55993.57
2018-07-30T04:37:35.250Z,55999.73
2018-07-30T04:40:04.636Z,56028.52
2018-07-30T04:42:33.941Z,56008.99
2018-07-30T04:45:03.237Z,55995.62
2018-07-30T04:47:32.480Z,56001.79
2018-07-30T04:50:02.100Z,56006.93
2018-07-30T04:52:31.343Z,55985.34
2018-07-30T04:55:00.996Z,56000.76
2018-07-30T04:57:30.554Z,56014.13
2018-07-30T04:59:59.819Z,55989.45
2018-07-30T05:02:29.075Z,55996.65
2018-07-30T05:04:58.666Z,55993.57
2018-07-30T05:07:28.414Z,55971.97
2018-07-30T05:09:57.703Z,55985.34
2018-07-30T05:12:27.578Z,56002.82
2018-07-30T05:14:57.452Z,55969.92
2018-07-30T05:17:26.803Z,55966.83
2018-07-30T05:19:56.742Z,55986.37
2018-07-30T05:22:26.367Z,55969.92
2018-07-30T05:24:55.601Z,55977.11
2018-07-30T05:27:24.850Z,55965.80
2018-07-30T05:29:54.136Z,55971.97
2018-07-30T05:32:23.763Z,55944.21
2018-07-30T05:34:54.013Z,55954.49
2018-07-30T05:37:23.336Z,55959.63
2018-07-30T05:39:52.799Z,55966.83
2018-07-30T05:42:22.120Z,55980.20
2018-07-30T05:44:51.357Z,55974.03
2018-07-30T05:47:20.611Z,55943.18
2018-07-30T05:49:49.880Z,55941.13
2018-07-30T05:52:19.115Z,55929.82
2018-07-30T05:54:48.333Z,55944.21
2018-07-30T05:57:17.629Z,55938.04
2018-07-30T05:59:47.361Z,55910.28
2018-07-30T06:02:16.786Z,55915.42
2018-07-30T06:04:46.116Z,55922.62
2018-07-30T06:07:15.397Z,55848.59
2018-07-30T06:09:45.353Z,55766.34
2018-07-30T06:12:14.690Z,55697.45
2018-07-30T06:14:44.308Z,55662.49
2018-07-30T06:17:13.974Z,55641.93
2018-07-30T06:19:43.977Z,55646.04
2018-07-30T06:22:13.275Z,55629.59
2018-07-30T06:24:42.579Z,55633.70
2018-07-30T06:27:11.817Z,55614.17
2018-07-30T06:29:41.132Z,55613.14
2018-07-30T06:32:10.744Z,55617.25
2018-07-30T06:34:39.955Z,55628.56
2018-07-30T06:37:09.564Z,55620.34
2018-07-30T06:39:38.562Z,55659.41
2018-07-30T06:42:07.848Z,55750.91
2018-07-30T06:44:37.112Z,55845.50
2018-07-30T06:47:06.836Z,55857.84
2018-07-30T06:49:36.043Z,55880.46
2018-07-30T06:52:05.615Z,55885.61
2018-07-30T06:54:35.242Z,55907.20
2018-07-30T06:57:04.952Z,55915.42
2018-07-30T06:59:34.184Z,55933.93
2018-07-30T07:02:03.928Z,55917.48
2018-07-30T07:04:33.392Z,55925.70
2018-07-30T07:07:02.683Z,55944.21
2018-07-30T07:09:32.216Z,55932.90
2018-07-30T07:12:01.506Z,55932.90
2018-07-30T07:14:31.082Z,55934.96
2018-07-30T07:17:00.767Z,55923.65
2018-07-30T07:19:30.427Z,55915.42
2018-07-30T07:22:06.402Z,55931.87
2018-07-30T07:24:35.700Z,55912.34
2018-07-30T07:27:04.993Z,55905.14
2018-07-30T07:29:36.580Z,55933.93
2018-07-30T07:32:05.919Z,55942.16
2018-07-30T07:34:35.288Z,55915.42
2018-07-30T07:37:04.558Z,55898.97
2018-07-30T07:39:33.802Z,55914.39
2018-07-30T07:42:03.158Z,55946.27
2018-07-30T07:44:32.460Z,55931.87
2018-07-30T07:47:02.068Z,55919.54
2018-07-30T07:49:31.327Z,55925.70
2018-07-30T07:52:00.627Z,55913.36
2018-07-30T07:54:30.161Z,55937.01
2018-07-30T07:56:59.673Z,55918.50
2018-07-30T07:59:28.951Z,55905.14
2018-07-30T08:01:58.231Z,55951.41
2018-07-30T08:04:27.551Z,55898.97
2018-07-30T08:06:56.826Z,55921.59
2018-07-30T08:09:26.175Z,55911.31
2018-07-30T08:11:55.410Z,55924.68
2018-07-30T08:14:25.161Z,55906.17
2018-07-30T08:16:54.416Z,55900.00
2018-07-30T08:19:23.716Z,55901.03
2018-07-30T08:21:53.239Z,55868.12
2018-07-30T08:24:22.477Z,55903.08
2018-07-30T08:26:52.590Z,55887.66
2018-07-30T08:29:22.195Z,55893.83
2018-07-30T08:31:51.506Z,55890.75
2018-07-30T08:34:20.788Z,55872.24
2018-07-30T08:36:50.070Z,55921.59
2018-07-30T08:39:19.690Z,55901.03
2018-07-30T08:41:49.241Z,55884.57
2018-07-30T08:44:18.579Z,55887.66
2018-07-30T08:46:48.136Z,55886.63
2018-07-30T08:49:17.743Z,55875.32
2018-07-30T08:51:46.996Z,55880.46
2018-07-30T08:54:17.631Z,55871.21
2018-07-30T08:56:46.889Z,55868.12
2018-07-30T08:59:16.141Z,55859.90
2018-07-30T09:01:45.566Z,55876.35
2018-07-30T09:04:14.963Z,55861.95
2018-07-30T09:06:44.198Z,55860.93
2018-07-30T09:09:13.539Z,55812.60
2018-07-30T09:11:42.832Z,55731.38
2018-07-30T09:14:12.364Z,55688.20
2018-07-30T09:16:41.437Z,55672.77
2018-07-30T09:19:16.008Z,55706.70
2018-07-30T09:21:45.358Z,55655.30
2018-07-30T09:24:14.650Z,55651.18
2018-07-30T09:26:43.955Z,55648.10
2018-07-30T09:29:13.231Z,55620.34
2018-07-30T09:31:42.929Z,55675.86
2018-07-30T09:34:12.142Z,55674.83
2018-07-30T09:36:41.424Z,55635.76
2018-07-30T09:39:11.983Z,55676.89
2018-07-30T09:41:41.787Z,55666.61
2018-07-30T09:44:11.056Z,55633.70
2018-07-30T09:46:40.335Z,55631.65
2018-07-30T09:49:09.961Z,55668.66
2018-07-30T09:51:39.442Z,55677.91
2018-07-30T09:54:09.031Z,55666.61
2018-07-30T09:56:38.277Z,55669.69
2018-07-30T09:59:07.810Z,55672.77
2018-07-30T10:01:37.522Z,55689.22
2018-07-30T10:04:06.844Z,55689.22
2018-07-30T10:06:36.117Z,55702.59
2018-07-30T10:09:09.816Z,55691.28
2018-07-30T10:11:39.466Z,55664.55
2018-07-30T10:14:09.601Z,55695.39
2018-07-30T10:16:38.944Z,55698.48
2018-07-30T10:19:08.189Z,55699.51
2018-07-30T10:21:37.462Z,55689.22
2018-07-30T10:24:07.138Z,55711.84
2018-07-30T10:26:36.359Z,55738.57
2018-07-30T10:29:05.611Z,55730.35
2018-07-30T10:31:35.166Z,55744.74
2018-07-30T10:34:05.638Z,55798.21
2018-07-30T10:36:35.569Z,55791.01
2018-07-30T10:39:07.104Z,55800.27
2018-07-30T10:41:36.368Z,55807.46
2018-07-30T10:44:06.072Z,55811.57
2018-07-30T10:46:35.324Z,55818.77
2018-07-30T10:49:04.682Z,55815.69
2018-07-30T10:51:33.954Z,55821.86
2018-07-30T10:54:03.245Z,55831.11
2018-07-30T10:56:32.529Z,55835.22
2018-07-30T10:59:01.816Z,55800.27
2018-07-30T11:01:31.935Z,55839.34
2018-07-30T11:04:01.245Z,55822.88
2018-07-30T11:06:30.877Z,55821.86
2018-07-30T11:09:00.189Z,55802.32
2018-07-30T11:11:29.847Z,55816.71
2018-07-30T11:13:59.498Z,55810.55
2018-07-30T11:16:28.882Z,55825.97
2018-07-30T11:18:58.137Z,55806.43
2018-07-30T11:21:27.746Z,55800.27
2018-07-30T11:23:57.019Z,55789.98
2018-07-30T11:26:26.312Z,55798.21
2018-07-30T11:28:55.569Z,55810.55
2018-07-30T11:31:25.803Z,55785.87
2018-07-30T11:33:55.187Z,55758.11
2018-07-30T11:36:24.775Z,55756.05
2018-07-30T11:38:54.779Z,55773.53
2018-07-30T11:41:24.406Z,55756.05
2018-07-30T11:43:54.334Z,55793.07
2018-07-30T11:46:23.514Z,55784.84
2018-07-30T11:48:52.923Z,55803.35
2018-07-30T11:51:22.461Z,55842.42
2018-07-30T11:53:51.723Z,55815.69
2018-07-30T11:56:21.005Z,55808.49
2018-07-30T11:58:50.308Z,55829.05
2018-07-30T12:01:19.981Z,55814.66
2018-07-30T12:03:49.263Z,55794.10
2018-07-30T12:06:19.083Z,55829.05
2018-07-30T12:08:48.719Z,55805.41
2018-07-30T12:11:17.983Z,55802.32
2018-07-30T12:13:47.273Z,55796.15
2018-07-30T12:16:16.989Z,55814.66
2018-07-30T12:18:46.722Z,55777.64
2018-07-30T12:21:16.758Z,55795.12
2018-07-30T12:23:46.003Z,55774.56
2018-07-30T12:26:15.607Z,55787.93
2018-07-30T12:28:44.899Z,55771.48
2018-07-30T12:31:14.667Z,55798.21
2018-07-30T12:33:44.147Z,55767.36
2018-07-30T12:36:13.904Z,55749.89
2018-07-30T12:38:43.224Z,55786.90
2018-07-30T12:41:12.828Z,55783.81
2018-07-30T12:43:42.130Z,55748.86
2018-07-30T12:46:11.719Z,55785.87
2018-07-30T12:48:41.496Z,55773.53
2018-07-30T12:51:11.178Z,55743.71
2018-07-30T12:53:41.208Z,55735.49
2018-07-30T12:56:10.472Z,55767.36
2018-07-30T12:58:39.713Z,55743.71
2018-07-30T13:01:09.034Z,55767.36
2018-07-30T13:03:38.299Z,55758.11
2018-07-30T13:06:07.677Z,55744.74
2018-07-30T13:08:37.016Z,55775.59
2018-07-30T13:11:06.674Z,55760.17
2018-07-30T13:13:36.584Z,55754.00
2018-07-30T13:16:05.880Z,55751.94
2018-07-30T13:18:35.528Z,55763.25
2018-07-30T13:21:04.858Z,55757.08
2018-07-30T13:23:34.404Z,55743.71
2018-07-30T13:26:03.991Z,55771.48
2018-07-30T13:28:33.228Z,55730.35
2018-07-30T13:31:02.857Z,55757.08
2018-07-30T13:33:32.260Z,55755.02
2018-07-30T13:36:01.984Z,55726.24
2018-07-30T13:38:31.348Z,55762.22
2018-07-30T13:41:00.991Z,55762.22
2018-07-30T13:43:30.563Z,55729.32
2018-07-30T13:46:00.636Z,55731.38
2018-07-30T13:48:30.428Z,55740.63
2018-07-30T13:50:59.731Z,55725.21
2018-07-30T13:53:29.000Z,55727.27
2018-07-30T13:55:58.288Z,55750.91
2018-07-30T13:58:27.552Z,55742.69
2018-07-30T14:00:56.787Z,55726.24
2018-07-30T14:03:26.052Z,55722.12
2018-07-30T14:05:55.336Z,55709.79
2018-07-30T14:08:24.835Z,55725.21
2018-07-30T14:10:54.380Z,55740.63
2018-07-30T14:13:26.806Z,55767.36
2018-07-30T14:15:56.852Z,55729.32
2018-07-30T14:18:26.220Z,55743.71
2018-07-30T14:20:55.872Z,55791.01
2018-07-30T14:23:25.462Z,55779.70
2018-07-30T14:25:54.734Z,55785.87
2018-07-30T14:28:24.420Z,55765.31
2018-07-30T14:30:53.639Z,55761.20
2018-07-30T14:33:23.329Z,55755.02
2018-07-30T14:35:53.030Z,55769.42
2018-07-30T14:38:22.596Z,55794.10
2018-07-30T14:40:51.867Z,55808.49
2018-07-30T14:43:21.145Z,55777.64
2018-07-30T14:45:50.436Z,55775.59
2018-07-30T14:48:19.992Z,55746.80
2018-07-30T14:50:49.224Z,55743.71
2018-07-30T14:53:18.499Z,55764.28
2018-07-30T14:55:47.800Z,55758.11
2018-07-30T14:58:17.050Z,55720.07
2018-07-30T15:00:46.321Z,55744.74
2018-07-30T15:03:16.003Z,55769.42
2018-07-30T15:05:45.250Z,55732.41
2018-07-30T15:08:14.477Z,55792.04
2018-07-30T15:10:43.719Z,55804.38
2018-07-30T15:13:13.021Z,55771.48
2018-07-30T15:15:42.790Z,55755.02
2018-07-30T15:18:12.465Z,55768.39
2018-07-30T15:20:41.738Z,55756.05
2018-07-30T15:23:11.552Z,55782.79
2018-07-30T15:25:40.847Z,55776.62
2018-07-30T15:28:10.067Z,55769.42
2018-07-30T15:30:39.343Z,55773.53
2018-07-30T15:33:09.071Z,55765.31
2018-07-30T15:35:38.392Z,55759.14
2018-07-30T15:38:08.274Z,55773.53
2018-07-30T15:40:37.551Z,55772.50
2018-07-30T15:43:06.828Z,55778.67
2018-07-30T15:45:36.102Z,55796.15
2018-07-30T15:48:05.343Z,55787.93
2018-07-30T15:50:34.655Z,55794.10
2018-07-30T15:53:03.916Z,55772.50
2018-07-30T15:55:33.549Z,55772.50
2018-07-30T15:58:03.143Z,55789.98
2018-07-30T16:00:32.428Z,55780.73
2018-07-30T16:03:01.737Z,55775.59
2018-07-30T16:05:31.067Z,55777.64
2018-07-30T16:08:00.136Z,55782.79
2018-07-30T16:10:29.408Z,55773.53
2018-07-30T16:12:58.699Z,55777.64
2018-07-30T16:15:27.975Z,55810.55
2018-07-30T16:17:57.366Z,55833.17
2018-07-30T16:20:26.540Z,55840.36
2018-07-30T16:22:56.291Z,55781.76
2018-07-30T16:25:25.595Z,55763.25
2018-07-30T16:27:54.846Z,55787.93
2018-07-30T16:30:24.449Z,55791.01
2018-07-30T16:32:54.292Z,55787.93
2018-07-30T16:35:23.804Z,55786.90
2018-07-30T16:37:53.088Z,55796.15
2018-07-30T16:40:22.622Z,55800.27
2018-07-30T16:42:53.396Z,55785.87
2018-07-30T16:45:22.683Z,55761.20
2018-07-30T16:47:52.759Z,55804.38
2018-07-30T16:50:22.014Z,55771.48
2018-07-30T16:52:51.342Z,55805.41
2018-07-30T16:55:20.962Z,55802.32
2018-07-30T16:57:50.249Z,55794.10
2018-07-30T17:00:19.816Z,55800.27
2018-07-30T17:02:49.233Z,55831.11
2018-07-30T17:05:19.018Z,55818.77
2018-07-30T17:07:48.991Z,55798.21
2018-07-30T17:10:18.251Z,55797.18
2018-07-30T17:12:47.928Z,55799.24
2018-07-30T17:15:17.570Z,55820.83
2018-07-30T17:17:46.876Z,55830.08
2018-07-30T17:20:16.114Z,55806.43
2018-07-30T17:22:45.437Z,55834.20
2018-07-30T17:25:14.711Z,55832.14
2018-07-30T17:27:44.049Z,55821.86
2018-07-30T17:30:13.753Z,55818.77
2018-07-30T17:32:42.980Z,55819.80
2018-07-30T17:35:12.206Z,55830.08
2018-07-30T17:37:41.446Z,55810.55
2018-07-30T17:40:11.151Z,55822.88
2018-07-30T17:42:40.741Z,55816.71
2018-07-30T17:45:13.071Z,55830.08
2018-07-30T17:47:43.160Z,55829.05
2018-07-30T17:50:12.419Z,55830.08
2018-07-30T17:52:42.096Z,55823.91
2018-07-30T17:55:11.358Z,55824.94
2018-07-30T17:57:41.714Z,55823.91
2018-07-30T18:00:11.923Z,55835.22
2018-07-30T18:02:41.543Z,55833.17
2018-07-30T18:05:10.860Z,55837.28
2018-07-30T18:07:40.556Z,55816.71
2018-07-30T18:10:10.597Z,55853.73
2018-07-30T18:12:40.262Z,55833.17
2018-07-30T18:15:10.400Z,55848.59
2018-07-30T18:17:39.732Z,55833.17
2018-07-30T18:20:09.419Z,55849.62
2018-07-30T18:22:38.730Z,55823.91
2018-07-30T18:25:08.414Z,55853.73
2018-07-30T18:27:38.187Z,55822.88
2018-07-30T18:30:07.778Z,55854.76
2018-07-30T18:32:37.355Z,55846.53
2018-07-30T18:35:06.628Z,55827.00
2018-07-30T18:37:36.279Z,55852.70
2018-07-30T18:40:06.538Z,55828.02
2018-07-30T18:42:35.787Z,55851.68
2018-07-30T18:45:07.162Z,55870.18
2018-07-30T18:47:36.425Z,55843.45
2018-07-30T18:50:06.152Z,55838.31
2018-07-30T18:52:35.924Z,55880.46
2018-07-30T18:55:05.752Z,55865.04
2018-07-30T18:57:35.584Z,55870.18
2018-07-30T19:00:05.469Z,55881.49
2018-07-30T19:02:35.100Z,55856.81
2018-07-30T19:05:04.650Z,55852.70
2018-07-30T19:07:33.903Z,55848.59
2018-07-30T19:10:03.763Z,55842.42
2018-07-30T19:12:32.978Z,55843.45
2018-07-30T19:17:59.984Z,55870.18
2018-07-30T19:20:29.977Z,55839.34
2018-07-30T19:22:59.506Z,55869.15
2018-07-30T19:25:29.112Z,55875.32
2018-07-30T19:27:58.731Z,55866.07
2018-07-30T19:30:28.396Z,55871.21
2018-07-30T19:32:57.688Z,55887.66
2018-07-30T19:35:26.967Z,55855.79
2018-07-30T19:37:56.187Z,55880.46
2018-07-30T19:40:25.406Z,55855.79
2018-07-30T19:42:55.068Z,55874.29
2018-07-30T19:45:24.856Z,55888.69
2018-07-30T19:47:53.903Z,55878.41
2018-07-30T19:50:23.138Z,55874.29
2018-07-30T19:52:52.692Z,55883.55
2018-07-30T19:55:21.950Z,55872.24
2018-07-30T19:57:51.532Z,55873.27
2018-07-30T20:00:20.501Z,55884.57
2018-07-30T20:02:49.818Z,55883.55
2018-07-30T20:05:19.083Z,55872.24
2018-07-30T20:07:48.339Z,55896.91
2018-07-30T20:10:17.586Z,55872.24
2018-07-30T20:12:46.810Z,55883.55
2018-07-30T20:15:16.467Z,55872.24
2018-07-30T20:17:46.149Z,55879.43
2018-07-30T20:20:16.946Z,55875.32
2018-07-30T20:22:46.382Z,55894.86
2018-07-30T20:25:15.631Z,55853.73
2018-07-30T20:27:44.877Z,55876.35
2018-07-30T20:30:14.098Z,55876.35
2018-07-30T20:32:43.450Z,55886.63
2018-07-30T20:35:12.723Z,55876.35
2018-07-30T20:37:42.532Z,55878.41
2018-07-30T20:40:11.882Z,55886.63
2018-07-30T20:42:41.611Z,55864.01
2018-07-30T20:45:11.002Z,55878.41
2018-07-30T20:47:40.264Z,55901.03
2018-07-30T20:50:09.481Z,55887.66
2018-07-30T20:52:38.735Z,55877.38
2018-07-30T20:55:08.366Z,55870.18
2018-07-30T20:57:37.626Z,55888.69
2018-07-30T21:00:06.927Z,55876.35
2018-07-30T21:02:36.370Z,55878.41
2018-07-30T21:05:05.827Z,55859.90
2018-07-30T21:07:35.034Z,55903.08
2018-07-30T21:10:05.072Z,55870.18
2018-07-30T21:12:34.627Z,55875.32
2018-07-30T21:15:04.343Z,55892.80
2018-07-30T21:17:34.435Z,55876.35
2018-07-30T21:20:03.919Z,55871.21
2018-07-30T21:22:33.718Z,55886.63
2018-07-30T21:25:02.989Z,55866.07
2018-07-30T21:27:32.570Z,55880.46
2018-07-30T21:30:02.304Z,55884.57
2018-07-30T21:32:31.527Z,55871.21
2018-07-30T21:35:01.215Z,55882.52
2018-07-30T21:37:30.707Z,55868.12
2018-07-30T21:40:00.295Z,55888.69
2018-07-30T21:42:29.563Z,55901.03
2018-07-30T21:44:59.706Z,55916.45
2018-07-30T21:47:28.956Z,55874.29
2018-07-30T21:49:58.559Z,55870.18
2018-07-30T21:52:28.107Z,55886.63
2018-07-30T21:54:57.419Z,55886.63
2018-07-30T21:57:27.273Z,55867.10
2018-07-30T21:59:56.528Z,55877.38
2018-07-30T22:02:25.994Z,55892.80
2018-07-30T22:04:56.075Z,55883.55
2018-07-30T22:07:25.614Z,55904.11
2018-07-30T22:09:55.200Z,55896.91
2018-07-30T22:12:24.699Z,55868.12
2018-07-30T22:14:53.947Z,55874.29
2018-07-30T22:17:23.983Z,55882.52
2018-07-30T22:19:53.201Z,55900.00
2018-07-30T22:22:22.421Z,55882.52
2018-07-30T22:24:51.688Z,55900.00
2018-07-30T22:27:21.019Z,55896.91
2018-07-30T22:29:50.664Z,55880.46
2018-07-30T22:32:20.868Z,55903.08
2018-07-30T22:34:50.233Z,55887.66
2018-07-30T22:37:20.258Z,55907.20
2018-07-30T22:39:52.409Z,55897.94
2018-07-30T22:42:21.792Z,55878.41
2018-07-30T22:44:51.061Z,55897.94
2018-07-30T22:47:20.507Z,55904.11
2018-07-30T22:49:49.770Z,55898.97
2018-07-30T22:52:22.561Z,55898.97
2018-07-30T22:54:51.819Z,55882.52
2018-07-30T22:57:21.663Z,55870.18
2018-07-30T22:59:50.938Z,55923.65
2018-07-30T23:02:20.220Z,55902.05
2018-07-30T23:04:49.499Z,55896.91
2018-07-30T23:07:19.227Z,55914.39
2018-07-30T23:09:48.497Z,55921.59
2018-07-30T23:12:19.206Z,55873.27
2018-07-30T23:14:48.858Z,55909.25
2018-07-30T23:17:18.071Z,55905.14
2018-07-30T23:19:47.730Z,55910.28
2018-07-30T23:22:17.572Z,55905.14
2018-07-30T23:24:49.770Z,55901.03
2018-07-30T23:27:20.048Z,55904.11
2018-07-30T23:29:49.339Z,55906.17
2018-07-30T23:32:18.568Z,55883.55
2018-07-30T23:34:47.837Z,55872.24
2018-07-30T23:37:17.214Z,55912.34
2018-07-30T23:39:46.742Z,55900.00
2018-07-30T23:42:16.679Z,55923.65
2018-07-30T23:44:46.671Z,55898.97
2018-07-30T23:47:15.967Z,55915.42
2018-07-30T23:49:45.190Z,55897.94
2018-07-30T23:52:14.402Z,55905.14
2018-07-30T23:54:44.033Z,55909.25
2018-07-30T23:57:13.418Z,55907.20
2018-07-30T23:59:43.041Z,55911.31
